Time;durP1;ratioP1;P1;durP2;ratioP2;P2;SDS_P1;SDS_P2;PMS_P1;PMS_P2;Temp;Humidity;BMP_temperature;BMP_pressure;BME280_temperature;BME280_humidity;BME280_pressure;Samples;Min_cycle;Max_cycle;Signal;HPM_P1;HPM_P2
2022/08/31 00:05:15;;;;;;;5.33;4.43;;;20.50;99.90;;;;;;4961998;29;20745;-81
2022/08/31 00:08:01;;;;;;;6.23;5.63;;;20.40;99.90;;;;;;4929863;29;20928;-81
2022/08/31 00:10:48;;;;;;;8.13;4.10;;;20.40;99.90;;;;;;4929751;29;20388;-81
2022/08/31 00:13:37;;;;;;;16.30;5.17;;;20.40;99.90;;;;;;4928997;29;20496;-80
2022/08/31 00:16:23;;;;;;;4.97;4.57;;;20.30;99.90;;;;;;4909068;29;20432;-80
2022/08/31 00:19:08;;;;;;;5.73;5.13;;;20.30;99.90;;;;;;4892185;29;20469;-81
2022/08/31 00:21:56;;;;;;;5.93;5.37;;;20.30;99.90;;;;;;4905215;29;20505;-80
2022/08/31 00:24:45;;;;;;;6.33;4.23;;;20.30;99.90;;;;;;4912833;29;20459;-81
2022/08/31 00:27:51;;;;;;;8.17;4.53;;;20.30;99.90;;;;;;4902268;29;20462;-81
2022/08/31 00:30:37;;;;;;;12.07;5.47;;;20.20;99.90;;;;;;4904143;29;20821;-81
2022/08/31 00:33:23;;;;;;;7.60;4.50;;;20.20;99.90;;;;;;4877337;29;20413;-81
2022/08/31 00:36:13;;;;;;;6.10;5.50;;;20.20;99.90;;;;;;4889627;29;20948;-81
2022/08/31 00:38:58;;;;;;;5.07;4.57;;;20.30;99.90;;;;;;4865593;29;20422;-80
2022/08/31 00:41:42;;;;;;;4.70;4.30;;;20.20;99.90;;;;;;4884443;29;20518;-81
2022/08/31 00:44:28;;;;;;;7.00;5.20;;;20.20;99.90;;;;;;4865528;29;20752;-81
2022/08/31 00:47:15;;;;;;;6.17;5.67;;;20.30;99.90;;;;;;4852837;29;20499;-81
2022/08/31 00:50:08;;;;;;;5.07;4.67;;;20.20;99.90;;;;;;4839906;29;20765;-81
2022/08/31 00:53:01;;;;;;;6.07;5.07;;;20.20;99.90;;;;;;4852454;29;20414;-80
2022/08/31 00:55:46;;;;;;;4.97;4.47;;;20.20;99.90;;;;;;4827706;29;20431;-81
2022/08/31 00:58:35;;;;;;;5.20;4.80;;;20.20;99.90;;;;;;4834289;29;20553;-81
2022/08/31 01:01:24;;;;;;;11.07;6.17;;;20.30;99.90;;;;;;4844049;29;20455;-81
2022/08/31 01:04:09;;;;;;;6.20;5.60;;;20.20;99.90;;;;;;4825364;29;20855;-80
2022/08/31 01:06:57;;;;;;;7.63;5.53;;;20.20;99.90;;;;;;4859748;29;20475;-80
2022/08/31 01:09:44;;;;;;;7.83;5.47;;;20.10;99.90;;;;;;4874952;29;20483;-81
2022/08/31 01:12:29;;;;;;;6.17;5.53;;;20.10;99.90;;;;;;4866231;29;20444;-81
2022/08/31 01:15:22;;;;;;;5.20;4.80;;;20.10;99.90;;;;;;4853165;29;20994;-80
2022/08/31 01:18:11;;;;;;;6.10;5.60;;;20.00;99.90;;;;;;4889766;29;20770;-81
2022/08/31 01:21:18;;;;;;;6.67;6.07;;;20.00;99.90;;;;;;4906898;29;20481;-80
2022/08/31 01:24:05;;;;;;;6.70;5.40;;;20.00;99.90;;;;;;4907075;29;20412;-81
2022/08/31 01:26:52;;;;;;;5.80;5.20;;;19.90;99.90;;;;;;4907517;29;20542;-80
2022/08/31 01:29:40;;;;;;;9.37;6.07;;;20.00;99.90;;;;;;4908360;29;20444;-81
2022/08/31 01:32:24;;;;;;;12.30;5.33;;;19.90;99.90;;;;;;4910211;29;20400;-77
2022/08/31 01:35:09;;;;;;;7.47;6.80;;;19.80;99.90;;;;;;4920189;29;20445;-79
2022/08/31 01:37:56;;;;;;;6.77;6.07;;;19.80;99.90;;;;;;4901625;29;20820;-80
2022/08/31 01:41:06;;;;;;;7.00;5.20;;;19.80;99.90;;;;;;4923574;29;20424;-80
2022/08/31 01:43:53;;;;;;;5.93;5.40;;;19.80;99.90;;;;;;4891812;29;20418;-80
2022/08/31 01:46:39;;;;;;;6.13;5.13;;;19.80;99.90;;;;;;4940747;29;20411;-80
2022/08/31 01:49:23;;;;;;;6.60;6.00;;;19.90;99.90;;;;;;4926560;29;20422;-77
2022/08/31 01:52:08;;;;;;;6.60;6.00;;;19.90;99.90;;;;;;4919110;29;20399;-80
2022/08/31 01:54:54;;;;;;;8.13;5.83;;;19.80;99.90;;;;;;4918678;29;20427;-80
2022/08/31 01:57:38;;;;;;;6.00;5.50;;;19.80;99.90;;;;;;4931987;29;20430;-80
2022/08/31 02:00:24;;;;;;;5.37;4.70;;;19.80;99.90;;;;;;4908656;29;20417;-80
2022/08/31 02:03:10;;;;;;;6.10;4.50;;;19.70;99.90;;;;;;4894953;29;20404;-80
2022/08/31 02:05:55;;;;;;;7.47;5.90;;;19.70;99.90;;;;;;4894539;29;20392;-80
2022/08/31 02:09:02;;;;;;;7.60;6.80;;;19.70;99.90;;;;;;4875479;29;20394;-80
2022/08/31 02:11:52;;;;;;;6.50;5.93;;;19.70;99.90;;;;;;4884358;29;20409;-77
2022/08/31 02:14:39;;;;;;;8.33;5.50;;;19.70;99.90;;;;;;4896747;29;20452;-77
2022/08/31 02:18:04;;;;;;;7.37;5.60;;;19.70;99.90;;;;;;4902338;29;20451;-77
2022/08/31 02:20:51;;;;;;;6.43;5.77;;;19.70;99.90;;;;;;4914575;29;20460;-77
2022/08/31 02:23:36;;;;;;;5.93;5.43;;;19.70;99.90;;;;;;4888981;29;20435;-78
2022/08/31 02:26:24;;;;;;;5.77;5.17;;;19.70;99.90;;;;;;4888265;29;20414;-77
2022/08/31 02:29:09;;;;;;;7.83;5.77;;;19.70;99.90;;;;;;4887029;29;20443;-78
2022/08/31 02:31:57;;;;;;;6.67;6.07;;;19.70;99.90;;;;;;4902971;29;20437;-77
2022/08/31 02:34:44;;;;;;;6.40;5.80;;;19.60;99.90;;;;;;4900778;29;20418;-78
2022/08/31 02:37:33;;;;;;;5.73;5.17;;;19.60;99.90;;;;;;4919611;29;20433;-78
2022/08/31 02:40:18;;;;;;;6.70;5.17;;;19.60;99.90;;;;;;4900199;29;20447;-78
2022/08/31 02:43:06;;;;;;;5.67;5.00;;;19.60;99.90;;;;;;4888098;29;20440;-79
2022/08/31 02:45:55;;;;;;;6.37;5.57;;;19.50;99.90;;;;;;4902653;29;20410;-77
2022/08/31 02:48:40;;;;;;;5.73;5.23;;;19.50;99.90;;;;;;4915175;29;20432;-78
2022/08/31 02:51:25;;;;;;;6.70;5.53;;;19.50;99.90;;;;;;4901979;29;20490;-78
2022/08/31 02:54:12;;;;;;;9.70;5.10;;;19.50;99.90;;;;;;4902473;29;20422;-77
2022/08/31 02:56:57;;;;;;;6.83;5.37;;;19.50;99.90;;;;;;4901922;29;20465;-77
2022/08/31 02:59:41;;;;;;;6.20;5.63;;;19.50;99.90;;;;;;4901382;29;20634;-77
2022/08/31 03:02:28;;;;;;;6.10;5.60;;;19.50;99.90;;;;;;4937545;29;20447;-78
2022/08/31 03:05:17;;;;;;;9.07;5.90;;;19.50;99.90;;;;;;4963259;28;20441;-78
2022/08/31 03:08:06;;;;;;;10.33;6.10;;;19.40;99.90;;;;;;4997128;28;20422;-77
2022/08/31 03:10:52;;;;;;;6.27;5.67;;;19.40;99.90;;;;;;4998168;28;20432;-78
2022/08/31 03:13:40;;;;;;;6.43;5.83;;;19.40;99.90;;;;;;5023399;28;20407;-78
2022/08/31 03:16:25;;;;;;;6.20;5.20;;;19.40;99.90;;;;;;5004108;28;20401;-77
2022/08/31 03:19:15;;;;;;;5.80;5.20;;;19.40;99.90;;;;;;5003614;28;20474;-78
2022/08/31 03:22:00;;;;;;;6.33;5.57;;;19.50;99.90;;;;;;4986926;28;20546;-80
2022/08/31 03:24:45;;;;;;;5.87;5.30;;;19.40;99.90;;;;;;4988772;28;20509;-78
2022/08/31 03:27:54;;;;;;;7.03;6.27;;;19.30;99.90;;;;;;4996001;28;20421;-77
2022/08/31 03:30:42;;;;;;;6.87;6.17;;;19.30;99.90;;;;;;4931334;29;20547;-80
2022/08/31 03:33:27;;;;;;;6.93;6.23;;;19.30;99.90;;;;;;4916768;29;20423;-80
2022/08/31 03:36:14;;;;;;;8.40;5.97;;;19.30;99.90;;;;;;4896064;29;20428;-80
2022/08/31 03:38:59;;;;;;;6.90;6.20;;;19.30;99.90;;;;;;4922873;29;20451;-80
2022/08/31 03:41:51;;;;;;;6.60;6.00;;;19.30;99.90;;;;;;4897129;29;20543;-80
2022/08/31 03:44:37;;;;;;;6.23;5.63;;;19.30;99.90;;;;;;4895985;29;20412;-80
2022/08/31 03:47:23;;;;;;;6.20;5.80;;;19.30;99.90;;;;;;4897538;29;20432;-80
2022/08/31 03:50:09;;;;;;;7.60;5.40;;;19.30;99.90;;;;;;4903557;29;20448;-80
2022/08/31 03:53:02;;;;;;;5.80;5.30;;;19.30;99.90;;;;;;4877593;29;20425;-80
2022/08/31 03:56:00;;;;;;;9.20;6.37;;;19.30;99.90;;;;;;4848220;29;20660;-80
2022/08/31 03:58:46;;;;;;;6.63;5.90;;;19.30;99.90;;;;;;4824412;29;20461;-80
2022/08/31 04:01:31;;;;;;;8.00;6.30;;;19.30;99.90;;;;;;4850621;29;20510;-80
2022/08/31 04:04:21;;;;;;;7.63;5.93;;;19.40;99.90;;;;;;4885589;29;20410;-80
2022/08/31 04:07:08;;;;;;;6.10;5.50;;;19.30;99.90;;;;;;4872393;29;20466;-79
2022/08/31 04:09:53;;;;;;;5.20;4.80;;;19.30;99.90;;;;;;4872631;29;20455;-80
2022/08/31 04:12:40;;;;;;;6.63;5.93;;;19.30;99.90;;;;;;4883041;29;20821;-79
2022/08/31 04:15:27;;;;;;;6.87;5.33;;;19.40;99.90;;;;;;4922338;29;20470;-80
2022/08/31 04:18:14;;;;;;;6.10;5.50;;;19.30;99.90;;;;;;4928985;29;20404;-80
2022/08/31 04:21:01;;;;;;;8.07;6.07;;;19.30;99.90;;;;;;4929201;29;20451;-80
2022/08/31 04:23:47;;;;;;;10.77;6.57;;;19.30;99.90;;;;;;4941590;29;20455;-80
2022/08/31 04:26:39;;;;;;;7.30;5.40;;;19.30;99.90;;;;;;4927928;29;20451;-79
2022/08/31 04:29:24;;;;;;;7.47;6.10;;;19.20;99.90;;;;;;4928868;29;20440;-80
2022/08/31 04:32:18;;;;;;;6.53;5.90;;;19.30;99.90;;;;;;4942195;29;20414;-81
2022/08/31 04:35:03;;;;;;;6.90;6.20;;;19.20;99.90;;;;;;4916222;29;20416;-80
2022/08/31 04:37:52;;;;;;;6.57;6.00;;;19.20;99.90;;;;;;4914930;29;20406;-81
2022/08/31 04:40:59;;;;;;;6.30;5.70;;;19.10;99.90;;;;;;5002268;28;20929;-80
2022/08/31 04:43:48;;;;;;;7.00;6.30;;;19.20;99.90;;;;;;4900175;29;20414;-80
2022/08/31 04:46:36;;;;;;;8.43;7.63;;;19.20;99.90;;;;;;4910245;29;20492;-80
2022/08/31 04:49:23;;;;;;;6.57;6.07;;;19.20;99.90;;;;;;4897405;29;20389;-81
2022/08/31 04:52:11;;;;;;;7.20;6.30;;;19.10;99.90;;;;;;4923310;29;20429;-80
2022/08/31 04:54:56;;;;;;;11.60;6.27;;;19.20;99.90;;;;;;4923264;29;20392;-81
2022/08/31 04:57:42;;;;;;;6.90;6.30;;;19.20;99.90;;;;;;4928626;29;20426;-80
2022/08/31 05:00:28;;;;;;;6.77;5.83;;;19.30;99.90;;;;;;4917009;29;20439;-81
2022/08/31 05:03:13;;;;;;;7.60;6.20;;;19.30;99.90;;;;;;4939675;28;20526;-80
2022/08/31 05:06:00;;;;;;;6.07;5.47;;;19.20;99.90;;;;;;4947171;28;20935;-80
2022/08/31 05:08:47;;;;;;;10.10;5.10;;;19.20;99.90;;;;;;4913716;29;20900;-80
2022/08/31 05:11:37;;;;;;;9.07;5.60;;;19.20;99.90;;;;;;4976233;28;20418;-80
2022/08/31 05:14:24;;;;;;;6.83;6.00;;;19.20;99.90;;;;;;4948304;29;20461;-80
2022/08/31 05:17:11;;;;;;;11.00;7.70;;;19.20;99.90;;;;;;4927782;29;20619;-80
2022/08/31 05:19:56;;;;;;;7.63;5.80;;;19.20;99.90;;;;;;4903904;29;20417;-80
2022/08/31 05:22:42;;;;;;;10.73;6.73;;;19.20;99.90;;;;;;4876348;29;20480;-80
2022/08/31 05:25:26;;;;;;;7.30;6.60;;;19.20;99.90;;;;;;4890141;29;20413;-80
2022/08/31 05:28:15;;;;;;;9.63;6.10;;;19.20;99.90;;;;;;4877455;29;20485;-81
2022/08/31 05:31:02;;;;;;;8.20;7.50;;;19.20;99.90;;;;;;4905520;29;20401;-80
2022/08/31 05:33:50;;;;;;;9.70;6.27;;;19.20;99.90;;;;;;4916256;29;20438;-81
2022/08/31 05:36:36;;;;;;;6.80;6.17;;;19.30;99.90;;;;;;4913618;29;20461;-81
2022/08/31 05:39:40;;;;;;;6.33;5.13;;;19.30;99.90;;;;;;4905237;29;20421;-81
2022/08/31 05:42:29;;;;;;;7.00;6.30;;;19.30;99.90;;;;;;4886786;29;20480;-81
2022/08/31 05:45:17;;;;;;;8.37;6.20;;;19.40;99.90;;;;;;4866943;29;20518;-81
2022/08/31 05:48:03;;;;;;;7.77;6.30;;;19.40;99.90;;;;;;4853651;29;20423;-81
2022/08/31 05:50:48;;;;;;;6.23;5.63;;;19.50;99.90;;;;;;4866707;29;21026;-80
2022/08/31 05:53:34;;;;;;;6.17;5.27;;;19.40;99.90;;;;;;4846158;29;20524;-82
2022/08/31 05:56:24;;;;;;;7.93;7.03;;;19.40;99.90;;;;;;4867584;29;20474;-82
2022/08/31 05:59:11;;;;;;;7.03;6.43;;;19.50;99.90;;;;;;4833574;29;20429;-80
2022/08/31 06:01:59;;;;;;;6.30;5.63;;;19.50;99.90;;;;;;4824815;29;20481;-79
2022/08/31 06:04:43;;;;;;;7.10;6.40;;;19.50;99.90;;;;;;4818541;29;20464;-80
2022/08/31 06:07:29;;;;;;;8.00;6.50;;;19.50;99.90;;;;;;4819286;29;20421;-81
2022/08/31 06:10:24;;;;;;;8.30;6.83;;;19.50;99.90;;;;;;4835615;29;20839;-80
2022/08/31 06:13:09;;;;;;;7.87;6.77;;;19.60;99.90;;;;;;4860249;29;20446;-80
2022/08/31 06:15:56;;;;;;;5.40;4.90;;;19.60;99.90;;;;;;4856584;29;20905;-81
2022/08/31 06:18:49;;;;;;;5.43;4.93;;;19.60;99.90;;;;;;4872001;29;20475;-81
2022/08/31 06:21:38;;;;;;;7.00;6.40;;;19.50;99.90;;;;;;4855474;29;20483;-79
2022/08/31 06:24:23;;;;;;;11.73;6.60;;;19.60;99.90;;;;;;4859717;29;20489;-80
2022/08/31 06:27:09;;;;;;;6.03;5.50;;;19.60;99.90;;;;;;4878571;29;20460;-80
2022/08/31 06:29:54;;;;;;;6.63;6.03;;;19.60;99.90;;;;;;4887032;29;20456;-80
2022/08/31 06:32:38;;;;;;;6.83;5.40;;;19.50;99.90;;;;;;4888260;29;20879;-82
2022/08/31 06:35:23;;;;;;;6.17;5.67;;;19.60;99.90;;;;;;4889960;28;20469;-80
2022/08/31 06:38:07;;;;;;;5.77;5.17;;;19.60;99.90;;;;;;4980749;28;20469;-79
2022/08/31 06:40:55;;;;;;;7.03;6.17;;;19.60;99.90;;;;;;4967368;28;20424;-81
2022/08/31 06:43:39;;;;;;;6.10;5.30;;;19.60;99.90;;;;;;4977117;28;21259;-80
2022/08/31 06:46:27;;;;;;;5.30;4.80;;;19.60;99.90;;;;;;4948303;28;20911;-80
2022/08/31 06:49:11;;;;;;;5.80;5.30;;;19.70;99.90;;;;;;4918599;29;20476;-80
2022/08/31 06:51:59;;;;;;;5.47;4.97;;;19.60;99.90;;;;;;4887483;29;20543;-80
2022/08/31 06:54:43;;;;;;;9.73;6.00;;;19.60;99.90;;;;;;4897590;29;20988;-82
2022/08/31 06:57:28;;;;;;;6.10;5.50;;;19.70;99.90;;;;;;4881384;29;20466;-79
2022/08/31 07:00:12;;;;;;;5.77;5.17;;;19.70;99.90;;;;;;4893186;29;20551;-80
2022/08/31 07:03:32;;;;;;;6.27;5.57;;;19.70;99.90;;;;;;4898472;29;20519;-80
2022/08/31 07:06:39;;;;;;;6.37;5.77;;;19.80;99.90;;;;;;4905334;29;20511;-80
2022/08/31 07:09:24;;;;;;;5.73;5.13;;;19.80;99.90;;;;;;4863950;29;20466;-81
2022/08/31 07:12:10;;;;;;;5.57;4.73;;;19.80;99.90;;;;;;4829380;29;20460;-80
2022/08/31 07:14:56;;;;;;;6.00;5.40;;;19.80;99.90;;;;;;4817163;29;20911;-79
2022/08/31 07:17:48;;;;;;;7.00;5.50;;;19.80;99.90;;;;;;4815435;29;20466;-80
2022/08/31 07:20:37;;;;;;;5.17;4.67;;;19.90;99.90;;;;;;4856702;29;20451;-79
2022/08/31 07:23:24;;;;;;;5.93;5.33;;;19.90;99.90;;;;;;4849451;29;20574;-79
2022/08/31 07:26:15;;;;;;;6.43;5.53;;;20.00;99.90;;;;;;4839791;29;20506;-81
2022/08/31 07:29:05;;;;;;;7.93;5.37;;;20.00;99.90;;;;;;4865168;29;20822;-81
2022/08/31 07:31:51;;;;;;;5.17;4.63;;;20.10;99.90;;;;;;4847716;29;21207;-81
2022/08/31 07:34:37;;;;;;;6.30;4.97;;;20.10;99.90;;;;;;4866078;29;20879;-81
2022/08/31 07:43:36;;;;;;;6.33;5.00;;;20.20;99.90;;;;;;4860438;29;20457;-79
2022/08/31 07:46:44;;;;;;;5.43;4.83;;;20.20;99.90;;;;;;4870980;29;20457;-80
2022/08/31 07:49:30;;;;;;;7.23;5.07;;;20.30;99.90;;;;;;4861901;29;20504;-81
2022/08/31 07:52:19;;;;;;;5.60;4.37;;;20.40;99.90;;;;;;4847573;29;20448;-81
2022/08/31 07:55:10;;;;;;;5.93;5.43;;;20.40;99.90;;;;;;4849073;29;20923;-82
2022/08/31 07:57:57;;;;;;;4.17;3.87;;;20.50;99.90;;;;;;4847716;29;20550;-81
2022/08/31 08:00:48;;;;;;;6.23;4.40;;;20.50;99.90;;;;;;4854180;29;20484;-82
2022/08/31 08:03:34;;;;;;;5.20;4.70;;;20.60;99.90;;;;;;4839197;29;20490;-81
2022/08/31 08:06:20;;;;;;;7.83;5.13;;;20.60;99.90;;;;;;4849132;29;20571;-81
2022/08/31 08:09:17;;;;;;;5.53;5.03;;;20.70;99.90;;;;;;4835071;29;20458;-81
2022/08/31 08:12:06;;;;;;;5.60;4.50;;;20.80;99.90;;;;;;4851294;29;20459;-81
2022/08/31 08:14:57;;;;;;;5.23;4.73;;;20.80;99.90;;;;;;4835089;29;20482;-82
2022/08/31 08:17:46;;;;;;;7.87;5.10;;;20.90;99.90;;;;;;4833660;29;21175;-80
2022/08/31 08:20:35;;;;;;;5.80;5.20;;;20.90;99.90;;;;;;4798317;29;20485;-80
2022/08/31 08:23:21;;;;;;;7.40;4.70;;;21.00;99.90;;;;;;4808121;29;20529;-81
2022/08/31 08:26:15;;;;;;;7.10;5.33;;;21.10;99.90;;;;;;4773510;30;20447;-81
2022/08/31 08:29:06;;;;;;;7.53;5.40;;;21.20;99.90;;;;;;4800967;29;20499;-80
2022/08/31 08:31:52;;;;;;;9.63;4.70;;;21.30;99.90;;;;;;4801038;29;20509;-81
2022/08/31 08:35:03;;;;;;;5.80;5.20;;;21.40;99.90;;;;;;4793798;29;20454;-80
2022/08/31 08:37:49;;;;;;;5.07;4.57;;;21.40;99.90;;;;;;4805451;29;20449;-81
2022/08/31 08:40:42;;;;;;;8.60;4.90;;;21.50;99.90;;;;;;4805048;29;21020;-79
2022/08/31 08:43:51;;;;;;;5.10;4.60;;;21.70;99.90;;;;;;4828184;29;20521;-81
2022/08/31 08:46:51;;;;;;;5.30;4.80;;;21.80;99.90;;;;;;4833057;29;20869;-80
2022/08/31 08:49:42;;;;;;;4.23;3.83;;;21.90;99.90;;;;;;4824977;29;20457;-81
2022/08/31 08:52:44;;;;;;;4.43;4.03;;;22.00;99.90;;;;;;4815558;29;20969;-80
2022/08/31 08:55:37;;;;;;;5.30;4.83;;;22.10;99.90;;;;;;4831722;29;20451;-80
2022/08/31 08:58:44;;;;;;;4.83;4.40;;;22.20;99.90;;;;;;4881487;29;20471;-83
2022/08/31 09:01:34;;;;;;;9.57;4.73;;;22.30;99.90;;;;;;4873966;29;20578;-81
2022/08/31 09:04:43;;;;;;;5.00;4.60;;;22.50;99.90;;;;;;4887117;29;20881;-79
2022/08/31 09:07:55;;;;;;;5.83;4.63;;;22.50;99.90;;;;;;4920015;29;20436;-79
2022/08/31 09:11:22;;;;;;;4.50;4.10;;;22.60;99.90;;;;;;4919653;29;20447;-78
2022/08/31 09:14:35;;;;;;;4.73;4.33;;;22.70;99.90;;;;;;4935231;28;20511;-80
2022/08/31 09:17:43;;;;;;;4.70;4.30;;;22.80;99.90;;;;;;4996940;28;20472;-81
2022/08/31 09:20:32;;;;;;;6.80;4.70;;;23.00;99.90;;;;;;4959580;28;20515;-81
2022/08/31 09:23:22;;;;;;;4.47;4.07;;;23.10;99.90;;;;;;4924263;29;20490;-81
2022/08/31 09:26:10;;;;;;;4.93;4.40;;;23.20;99.90;;;;;;4918060;29;20447;-80
2022/08/31 09:28:54;;;;;;;5.30;4.80;;;23.30;99.90;;;;;;4882923;29;20457;-82
2022/08/31 09:31:45;;;;;;;5.00;4.43;;;23.40;99.90;;;;;;4871206;29;20458;-80
2022/08/31 09:34:39;;;;;;;4.57;4.20;;;23.50;99.90;;;;;;4880742;29;20710;-81
2022/08/31 09:37:36;;;;;;;5.60;5.10;;;23.60;99.90;;;;;;4874861;29;20450;-82
2022/08/31 09:40:37;;;;;;;4.43;4.00;;;23.60;99.90;;;;;;4881850;29;20505;-80
2022/08/31 09:43:28;;;;;;;10.43;4.40;;;24.10;99.90;;;;;;4887938;29;20502;-80
2022/08/31 09:46:27;;;;;;;4.50;4.10;;;24.00;99.90;;;;;;4897147;29;20480;-81
2022/08/31 09:49:21;;;;;;;10.23;5.20;;;24.10;99.90;;;;;;4889512;29;21046;-79
2022/08/31 09:55:26;;;;;;;4.53;4.13;;;24.20;99.90;;;;;;4893356;29;20461;-79
2022/08/31 09:58:13;;;;;;;4.23;3.77;;;24.80;99.90;;;;;;4859608;29;20469;-81
2022/08/31 10:01:11;;;;;;;6.43;4.20;;;24.50;99.90;;;;;;4874872;29;20446;-82
2022/08/31 10:04:18;;;;;;;5.27;4.27;;;24.70;99.90;;;;;;4882699;29;20469;-81
2022/08/31 10:07:28;;;;;;;5.13;4.63;;;23.90;99.90;;;;;;4898764;29;20447;-82
2022/08/31 10:10:20;;;;;;;4.83;4.30;;;24.10;99.90;;;;;;4923859;29;21114;-82
2022/08/31 10:13:11;;;;;;;4.40;4.00;;;23.80;99.90;;;;;;4911538;29;20444;-81
2022/08/31 10:16:01;;;;;;;4.67;4.27;;;23.70;99.90;;;;;;4891497;29;20890;-80
2022/08/31 10:19:01;;;;;;;4.83;4.43;;;23.90;99.90;;;;;;4903920;29;20549;-81
2022/08/31 10:21:55;;;;;;;5.90;5.40;;;23.40;99.90;;;;;;4942404;29;20637;-81
2022/08/31 10:24:47;;;;;;;7.10;4.97;;;22.80;99.90;;;;;;4942793;29;20514;-79
2022/08/31 10:27:45;;;;;;;4.33;3.93;;;23.10;99.90;;;;;;4911946;29;20510;-80
2022/08/31 10:30:58;;;;;;;6.57;5.00;;;24.30;99.90;;;;;;4967256;28;20441;-80
2022/08/31 10:37:14;;;;;;;5.07;3.90;;;24.50;99.90;;;;;;4989678;28;20923;-82
2022/08/31 10:40:08;;;;;;;7.30;4.40;;;24.70;99.90;;;;;;5008956;28;20451;-80
2022/08/31 10:43:21;;;;;;;3.20;2.90;;;24.90;99.90;;;;;;5015185;28;20458;-83
2022/08/31 10:46:07;;;;;;;4.87;4.30;;;25.00;99.90;;;;;;5022399;28;20446;-81
2022/08/31 10:48:53;;;;;;;4.00;3.60;;;25.00;99.90;;;;;;5027823;28;20438;-81
2022/08/31 10:52:02;;;;;;;12.10;5.70;;;24.90;99.90;;;;;;5022860;28;20480;-79
2022/08/31 10:55:08;;;;;;;4.80;4.40;;;24.70;99.90;;;;;;5029075;28;20450;-81
2022/08/31 10:58:02;;;;;;;4.97;4.57;;;24.00;99.90;;;;;;5034749;28;20471;-81
2022/08/31 11:00:55;;;;;;;4.40;4.10;;;23.70;99.90;;;;;;5024163;28;21191;-79
2022/08/31 11:04:00;;;;;;;5.27;4.37;;;24.10;99.90;;;;;;4981254;28;20462;-79
2022/08/31 11:07:06;;;;;;;5.00;4.53;;;24.70;99.90;;;;;;5026170;28;20434;-80
2022/08/31 11:10:21;;;;;;;6.20;4.77;;;24.90;99.90;;;;;;5027937;28;20439;-81
2022/08/31 11:13:16;;;;;;;5.10;4.60;;;24.70;99.90;;;;;;5018962;28;21081;-81
2022/08/31 11:16:20;;;;;;;5.03;4.63;;;24.70;99.90;;;;;;4999402;28;20507;-81
2022/08/31 11:19:18;;;;;;;7.10;6.43;;;24.60;99.90;;;;;;5012288;28;21002;-81
2022/08/31 11:22:18;;;;;;;4.50;4.10;;;24.30;99.90;;;;;;5013579;28;20571;-82
2022/08/31 11:25:30;;;;;;;6.03;5.40;;;24.50;99.90;;;;;;5009311;28;20521;-81
2022/08/31 11:28:47;;;;;;;5.47;5.00;;;24.70;99.90;;;;;;5015517;28;20497;-81
2022/08/31 11:31:33;;;;;;;4.90;4.40;;;25.10;99.90;;;;;;5023394;28;20930;-82
2022/08/31 11:34:27;;;;;;;4.73;4.33;;;24.40;99.90;;;;;;5015961;28;20427;-81
2022/08/31 11:37:32;;;;;;;5.00;4.47;;;24.80;99.90;;;;;;5012208;28;20943;-80
2022/08/31 11:40:50;;;;;;;5.37;4.97;;;24.90;99.90;;;;;;5012815;28;20439;-83
2022/08/31 11:43:44;;;;;;;8.40;5.63;;;25.10;99.90;;;;;;4998533;28;20430;-82
2022/08/31 11:47:00;;;;;;;4.73;4.30;;;24.90;99.90;;;;;;5010308;28;20438;-82
2022/08/31 11:49:48;;;;;;;7.00;5.17;;;25.00;99.90;;;;;;5010118;28;20470;-81
2022/08/31 11:52:41;;;;;;;4.87;4.47;;;25.10;99.90;;;;;;5021383;28;20574;-81
2022/08/31 11:55:44;;;;;;;4.83;4.43;;;25.20;99.90;;;;;;4997927;28;20483;-81
2022/08/31 11:58:33;;;;;;;4.47;4.03;;;25.20;99.90;;;;;;5015363;28;20459;-81
2022/08/31 12:01:34;;;;;;;4.53;4.23;;;25.10;99.90;;;;;;5014748;28;20792;-80
2022/08/31 12:04:57;;;;;;;5.40;4.57;;;25.10;99.90;;;;;;5015080;28;20584;-83
2022/08/31 12:07:47;;;;;;;4.77;4.37;;;25.00;99.90;;;;;;5004911;28;20501;-81
2022/08/31 12:10:35;;;;;;;4.93;4.53;;;24.90;99.90;;;;;;4994503;28;20486;-81
2022/08/31 12:13:37;;;;;;;5.03;4.63;;;24.80;99.90;;;;;;4995446;28;20444;-80
2022/08/31 12:16:40;;;;;;;5.87;5.30;;;24.80;99.90;;;;;;5005940;28;20513;-82
2022/08/31 12:26:22;;;;;;;5.50;4.80;;;24.10;99.90;;;;;;5012366;28;20447;-82
2022/08/31 12:29:33;;;;;;;4.20;3.77;;;23.80;99.90;;;;;;4992667;28;20471;-81
2022/08/31 12:32:30;;;;;;;5.23;4.63;;;23.70;99.90;;;;;;5007150;28;20427;-82
2022/08/31 12:35:21;;;;;;;5.60;5.10;;;23.70;99.90;;;;;;5004852;28;20439;-82
2022/08/31 12:38:08;;;;;;;5.37;4.57;;;23.50;99.90;;;;;;5009183;28;20443;-82
2022/08/31 12:40:54;;;;;;;4.70;4.30;;;23.60;99.90;;;;;;5004270;28;20783;-83
2022/08/31 12:43:45;;;;;;;5.10;4.60;;;23.80;99.90;;;;;;5015995;28;20821;-79
2022/08/31 12:46:44;;;;;;;5.90;5.30;;;23.40;99.90;;;;;;5016351;28;20435;-80
2022/08/31 12:49:53;;;;;;;4.63;4.23;;;23.40;99.90;;;;;;5000395;28;20443;-80
2022/08/31 12:53:02;;;;;;;5.30;4.80;;;23.40;99.90;;;;;;5003442;28;20502;-78
2022/08/31 12:56:18;;;;;;;8.17;5.00;;;23.50;99.90;;;;;;4975270;28;20484;-80
2022/08/31 12:59:42;;;;;;;8.97;7.73;;;23.50;99.90;;;;;;4962998;28;20464;-81
2022/08/31 13:02:28;;;;;;;4.87;4.47;;;23.50;99.90;;;;;;4975365;28;20461;-79
2022/08/31 13:05:22;;;;;;;4.93;4.53;;;23.60;99.90;;;;;;4918906;29;20451;-80
2022/08/31 13:08:28;;;;;;;5.73;5.03;;;23.50;99.90;;;;;;4880089;29;20808;-80
2022/08/31 13:11:34;;;;;;;6.00;5.00;;;23.70;99.90;;;;;;4931416;29;20492;-80
2022/08/31 13:14:23;;;;;;;5.87;5.37;;;23.40;99.90;;;;;;4926376;29;20463;-79
2022/08/31 13:17:38;;;;;;;9.10;8.20;;;23.60;99.90;;;;;;4912443;29;20440;-81
2022/08/31 13:20:29;;;;;;;6.97;5.63;;;23.90;99.90;;;;;;4847265;29;20569;-80
2022/08/31 13:23:29;;;;;;;4.70;4.40;;;23.90;99.90;;;;;;4849424;29;20486;-81
2022/08/31 13:26:23;;;;;;;6.17;4.97;;;24.20;99.90;;;;;;4852628;29;20490;-80
2022/08/31 13:29:42;;;;;;;5.20;4.67;;;24.40;99.90;;;;;;4872077;29;20469;-80
2022/08/31 13:32:53;;;;;;;3.60;3.40;;;24.40;99.90;;;;;;4840737;29;20443;-80
2022/08/31 13:35:48;;;;;;;4.50;4.10;;;24.40;99.90;;;;;;4831493;29;20450;-80
2022/08/31 13:38:42;;;;;;;7.73;4.13;;;24.40;99.90;;;;;;4853648;29;20532;-79
2022/08/31 13:41:31;;;;;;;3.80;3.50;;;23.90;99.90;;;;;;4852988;29;20553;-80
2022/08/31 13:44:23;;;;;;;5.27;2.97;;;24.10;99.90;;;;;;4852588;29;20507;-79
2022/08/31 13:47:19;;;;;;;3.47;3.27;;;24.00;99.90;;;;;;4827726;29;20463;-80
2022/08/31 13:50:12;;;;;;;3.60;3.30;;;23.70;99.90;;;;;;4819054;29;20443;-80
2022/08/31 13:53:00;;;;;;;5.03;4.63;;;23.80;99.90;;;;;;4837987;29;20992;-81
2022/08/31 13:55:47;;;;;;;3.67;3.30;;;23.80;99.90;;;;;;4851021;29;20469;-80
2022/08/31 13:58:33;;;;;;;3.50;3.20;;;24.00;99.90;;;;;;4853040;29;20503;-81
2022/08/31 14:01:23;;;;;;;5.60;2.77;;;24.10;99.90;;;;;;4839309;29;20478;-81
2022/08/31 14:04:37;;;;;;;4.70;3.57;;;23.80;99.90;;;;;;4856148;29;20490;-81
2022/08/31 14:07:50;;;;;;;3.10;2.90;;;23.70;99.90;;;;;;4881802;29;20477;-82
2022/08/31 14:10:39;;;;;;;4.67;4.30;;;24.00;99.90;;;;;;4883784;29;20484;-81
2022/08/31 14:13:26;;;;;;;3.87;3.57;;;24.10;99.90;;;;;;4921212;29;20514;-79
2022/08/31 14:16:31;;;;;;;3.33;3.07;;;24.00;99.90;;;;;;4921028;29;20494;-81
2022/08/31 14:19:29;;;;;;;3.40;3.10;;;23.70;99.90;;;;;;4932253;29;20589;-80
2022/08/31 14:22:35;;;;;;;5.33;3.20;;;23.90;99.90;;;;;;4951009;29;20486;-80
2022/08/31 14:25:21;;;;;;;3.43;3.07;;;23.50;99.90;;;;;;4923165;29;20474;-80
2022/08/31 14:28:07;;;;;;;3.40;2.80;;;23.80;99.90;;;;;;4896358;29;20497;-81
2022/08/31 14:31:08;;;;;;;3.20;3.00;;;23.80;99.90;;;;;;4920804;28;20510;-80
2022/08/31 14:34:07;;;;;;;9.60;3.37;;;24.00;99.90;;;;;;4912668;29;20435;-80
2022/08/31 14:37:05;;;;;;;3.70;3.40;;;23.80;99.90;;;;;;4908297;29;20475;-80
2022/08/31 14:39:53;;;;;;;3.20;2.90;;;23.60;99.90;;;;;;4921210;29;20500;-80
2022/08/31 14:42:40;;;;;;;3.60;3.30;;;23.20;99.90;;;;;;4910868;29;20496;-78
2022/08/31 14:45:26;;;;;;;3.97;3.67;;;23.10;99.90;;;;;;4923755;29;20469;-80
2022/08/31 14:48:16;;;;;;;3.67;3.37;;;23.40;99.90;;;;;;4935241;29;20461;-80
2022/08/31 14:51:24;;;;;;;3.37;3.17;;;23.10;99.90;;;;;;4925862;29;20443;-80
2022/08/31 14:54:15;;;;;;;5.10;3.90;;;23.30;99.90;;;;;;4929667;29;20519;-79
2022/08/31 14:57:10;;;;;;;3.30;3.10;;;23.50;99.90;;;;;;4939204;29;20454;-81
2022/08/31 14:59:59;;;;;;;3.73;3.43;;;23.70;99.90;;;;;;4935600;29;20451;-81
2022/08/31 15:02:46;;;;;;;5.00;3.73;;;23.70;99.90;;;;;;4961810;29;20454;-80
2022/08/31 15:05:37;;;;;;;4.10;3.73;;;23.60;99.90;;;;;;4962817;29;20508;-81
2022/08/31 15:08:26;;;;;;;4.37;3.57;;;23.60;99.90;;;;;;4958864;29;20440;-81
2022/08/31 15:11:11;;;;;;;4.30;3.80;;;23.60;99.90;;;;;;4946892;29;20468;-81
2022/08/31 15:13:59;;;;;;;7.80;4.03;;;23.40;99.90;;;;;;4961992;28;20441;-81
2022/08/31 15:16:49;;;;;;;7.30;3.40;;;23.30;99.90;;;;;;4960083;29;21283;-80
2022/08/31 15:19:45;;;;;;;4.80;4.40;;;23.10;99.90;;;;;;4907799;29;20432;-81